sensor_id;sensor_type;location;lat;lon;timestamp;temperature;humidity
25688;DHT22;17407;51.120;3.702;2022-08-04T00:00:10;22.60;99.90
25688;DHT22;17407;51.120;3.702;2022-08-04T00:10:48;22.50;99.90
25688;DHT22;17407;51.120;3.702;2022-08-04T00:13:16;22.40;99.90
25688;DHT22;17407;51.120;3.702;2022-08-04T00:15:53;22.40;99.90
25688;DHT22;17407;51.120;3.702;2022-08-04T00:18:26;22.30;99.90
25688;DHT22;17407;51.120;3.702;2022-08-04T00:20:58;22.30;99.90
25688;DHT22;17407;51.120;3.702;2022-08-04T00:23:26;22.30;99.90
25688;DHT22;17407;51.120;3.702;2022-08-04T00:25:52;22.30;99.90
25688;DHT22;17407;51.120;3.702;2022-08-04T00:28:20;22.30;99.90
25688;DHT22;17407;51.120;3.702;2022-08-04T00:30:45;22.30;99.90
25688;DHT22;17407;51.120;3.702;2022-08-04T00:33:17;22.30;99.90
25688;DHT22;17407;51.120;3.702;2022-08-04T00:35:46;22.30;99.90
25688;DHT22;17407;51.120;3.702;2022-08-04T00:38:14;22.20;99.90
25688;DHT22;17407;51.120;3.702;2022-08-04T00:43:48;22.20;99.90
25688;DHT22;17407;51.120;3.702;2022-08-04T00:46:54;22.20;99.90
25688;DHT22;17407;51.120;3.702;2022-08-04T00:49:50;22.20;99.90
25688;DHT22;17407;51.120;3.702;2022-08-04T01:00:57;22.10;99.90
25688;DHT22;17407;51.120;3.702;2022-08-04T01:03:55;22.00;99.90
25688;DHT22;17407;51.120;3.702;2022-08-04T01:06:33;22.10;99.90
25688;DHT22;17407;51.120;3.702;2022-08-04T01:09:17;22.10;99.90
25688;DHT22;17407;51.120;3.702;2022-08-04T01:17:32;22.00;99.90
25688;DHT22;17407;51.120;3.702;2022-08-04T01:20:05;22.00;99.90
25688;DHT22;17407;51.120;3.702;2022-08-04T01:22:39;22.00;99.90
25688;DHT22;17407;51.120;3.702;2022-08-04T01:25:40;22.00;99.90
25688;DHT22;17407;51.120;3.702;2022-08-04T01:34:05;22.00;99.90
25688;DHT22;17407;51.120;3.702;2022-08-04T01:36:34;22.00;99.90
25688;DHT22;17407;51.120;3.702;2022-08-04T01:39:00;21.90;99.90
25688;DHT22;17407;51.120;3.702;2022-08-04T01:41:51;22.00;99.90
25688;DHT22;17407;51.120;3.702;2022-08-04T01:44:17;21.90;99.90
25688;DHT22;17407;51.120;3.702;2022-08-04T01:46:45;22.00;99.90
25688;DHT22;17407;51.120;3.702;2022-08-04T01:49:16;21.90;99.90
25688;DHT22;17407;51.120;3.702;2022-08-04T01:51:43;21.90;99.90
25688;DHT22;17407;51.120;3.702;2022-08-04T01:54:10;21.90;99.90
25688;DHT22;17407;51.120;3.702;2022-08-04T01:56:37;21.90;99.90
25688;DHT22;17407;51.120;3.702;2022-08-04T01:59:05;21.90;99.90
25688;DHT22;17407;51.120;3.702;2022-08-04T02:01:34;21.90;99.90
25688;DHT22;17407;51.120;3.702;2022-08-04T02:04:00;21.90;99.90
25688;DHT22;17407;51.120;3.702;2022-08-04T02:07:04;21.90;99.90
25688;DHT22;17407;51.120;3.702;2022-08-04T02:13:09;21.80;99.90
25688;DHT22;17407;51.120;3.702;2022-08-04T02:15:52;21.80;99.90
25688;DHT22;17407;51.120;3.702;2022-08-04T02:18:30;21.80;99.90
25688;DHT22;17407;51.120;3.702;2022-08-04T02:20:59;21.80;99.90
25688;DHT22;17407;51.120;3.702;2022-08-04T02:23:37;21.80;99.90
25688;DHT22;17407;51.120;3.702;2022-08-04T02:26:27;21.80;99.90
25688;DHT22;17407;51.120;3.702;2022-08-04T02:29:38;21.80;99.90
25688;DHT22;17407;51.120;3.702;2022-08-04T02:32:06;21.70;99.90
25688;DHT22;17407;51.120;3.702;2022-08-04T02:34:56;21.80;99.90
25688;DHT22;17407;51.120;3.702;2022-08-04T02:37:25;21.80;99.90
25688;DHT22;17407;51.120;3.702;2022-08-04T02:39:52;21.80;99.90
25688;DHT22;17407;51.120;3.702;2022-08-04T02:42:18;21.80;99.90
25688;DHT22;17407;51.120;3.702;2022-08-04T02:44:49;21.80;99.90
25688;DHT22;17407;51.120;3.702;2022-08-04T02:47:19;21.70;99.90
25688;DHT22;17407;51.120;3.702;2022-08-04T02:49:46;21.70;99.90
25688;DHT22;17407;51.120;3.702;2022-08-04T02:52:12;21.70;99.90
25688;DHT22;17407;51.120;3.702;2022-08-04T02:54:40;21.70;99.90
25688;DHT22;17407;51.120;3.702;2022-08-04T02:57:13;21.70;99.90
25688;DHT22;17407;51.120;3.702;2022-08-04T03:03:09;21.60;99.90
25688;DHT22;17407;51.120;3.702;2022-08-04T03:05:57;21.60;99.90
25688;DHT22;17407;51.120;3.702;2022-08-04T03:11:27;21.50;99.90
25688;DHT22;17407;51.120;3.702;2022-08-04T03:14:24;21.40;99.90
25688;DHT22;17407;51.120;3.702;2022-08-04T03:17:26;21.40;99.90
25688;DHT22;17407;51.120;3.702;2022-08-04T03:23:15;21.50;99.90
25688;DHT22;17407;51.120;3.702;2022-08-04T03:26:03;21.50;99.90
25688;DHT22;17407;51.120;3.702;2022-08-04T03:42:32;21.30;99.90
25688;DHT22;17407;51.120;3.702;2022-08-04T03:57:21;21.20;99.90
25688;DHT22;17407;51.120;3.702;2022-08-04T04:31:12;20.80;99.90
25688;DHT22;17407;51.120;3.702;2022-08-04T04:36:11;20.80;99.90
25688;DHT22;17407;51.120;3.702;2022-08-04T04:39:02;20.80;99.90
25688;DHT22;17407;51.120;3.702;2022-08-04T04:47:14;20.70;99.90
25688;DHT22;17407;51.120;3.702;2022-08-04T04:49:50;20.70;99.90
25688;DHT22;17407;51.120;3.702;2022-08-04T04:52:33;20.70;99.90
25688;DHT22;17407;51.120;3.702;2022-08-04T04:55:18;20.60;99.90
25688;DHT22;17407;51.120;3.702;2022-08-04T04:57:45;20.60;99.90
25688;DHT22;17407;51.120;3.702;2022-08-04T05:00:13;20.60;99.90
25688;DHT22;17407;51.120;3.702;2022-08-04T05:02:58;20.60;99.90
25688;DHT22;17407;51.120;3.702;2022-08-04T05:05:55;20.70;99.90
25688;DHT22;17407;51.120;3.702;2022-08-04T05:11:50;20.80;99.90
25688;DHT22;17407;51.120;3.702;2022-08-04T05:16:58;20.80;99.90
25688;DHT22;17407;51.120;3.702;2022-08-04T05:22:05;20.90;99.90
25688;DHT22;17407;51.120;3.702;2022-08-04T05:24:37;20.90;99.90
25688;DHT22;17407;51.120;3.702;2022-08-04T05:27:10;20.90;99.90
25688;DHT22;17407;51.120;3.702;2022-08-04T05:29:53;21.00;99.90
25688;DHT22;17407;51.120;3.702;2022-08-04T05:32:25;21.00;99.90
25688;DHT22;17407;51.120;3.702;2022-08-04T05:34:59;21.00;99.90
25688;DHT22;17407;51.120;3.702;2022-08-04T05:37:28;21.00;99.90
25688;DHT22;17407;51.120;3.702;2022-08-04T05:40:04;21.00;99.90
25688;DHT22;17407;51.120;3.702;2022-08-04T05:42:37;21.10;99.90
25688;DHT22;17407;51.120;3.702;2022-08-04T05:45:05;21.10;99.90
25688;DHT22;17407;51.120;3.702;2022-08-04T05:47:32;21.20;99.90
25688;DHT22;17407;51.120;3.702;2022-08-04T05:50:00;21.20;99.90
25688;DHT22;17407;51.120;3.702;2022-08-04T05:52:26;21.20;99.90
25688;DHT22;17407;51.120;3.702;2022-08-04T05:54:52;21.20;99.90
25688;DHT22;17407;51.120;3.702;2022-08-04T05:57:19;21.30;99.90
25688;DHT22;17407;51.120;3.702;2022-08-04T05:59:45;21.30;99.90
25688;DHT22;17407;51.120;3.702;2022-08-04T06:02:13;21.30;99.90
25688;DHT22;17407;51.120;3.702;2022-08-04T06:04:44;21.40;99.90
25688;DHT22;17407;51.120;3.702;2022-08-04T06:07:10;21.50;99.90
25688;DHT22;17407;51.120;3.702;2022-08-04T06:09:37;21.50;99.90
25688;DHT22;17407;51.120;3.702;2022-08-04T06:12:06;21.50;99.90
25688;DHT22;17407;51.120;3.702;2022-08-04T06:14:54;21.60;99.90
25688;DHT22;17407;51.120;3.702;2022-08-04T06:17:31;21.70;99.90
25688;DHT22;17407;51.120;3.702;2022-08-04T06:19:58;21.70;99.90
25688;DHT22;17407;51.120;3.702;2022-08-04T06:22:26;21.70;99.90
25688;DHT22;17407;51.120;3.702;2022-08-04T06:24:54;21.80;99.90
25688;DHT22;17407;51.120;3.702;2022-08-04T06:27:21;21.80;99.90
25688;DHT22;17407;51.120;3.702;2022-08-04T06:29:48;21.90;99.90
25688;DHT22;17407;51.120;3.702;2022-08-04T06:32:15;21.90;99.90
25688;DHT22;17407;51.120;3.702;2022-08-04T06:35:10;22.00;99.90
25688;DHT22;17407;51.120;3.702;2022-08-04T06:37:37;22.00;99.90
25688;DHT22;17407;51.120;3.702;2022-08-04T06:40:04;22.00;99.90
25688;DHT22;17407;51.120;3.702;2022-08-04T06:42:32;22.10;99.90
25688;DHT22;17407;51.120;3.702;2022-08-04T06:44:58;22.10;99.90
25688;DHT22;17407;51.120;3.702;2022-08-04T06:47:24;22.20;99.90
25688;DHT22;17407;51.120;3.702;2022-08-04T06:49:52;22.30;99.90
25688;DHT22;17407;51.120;3.702;2022-08-04T06:52:19;22.30;99.90
25688;DHT22;17407;51.120;3.702;2022-08-04T06:54:49;22.30;99.90
25688;DHT22;17407;51.120;3.702;2022-08-04T06:57:25;22.30;99.90
25688;DHT22;17407;51.120;3.702;2022-08-04T07:00:11;22.50;99.90
25688;DHT22;17407;51.120;3.702;2022-08-04T07:02:43;22.60;99.90
25688;DHT22;17407;51.120;3.702;2022-08-04T07:05:09;22.60;99.90
25688;DHT22;17407;51.120;3.702;2022-08-04T07:07:36;22.60;99.90
25688;DHT22;17407;51.120;3.702;2022-08-04T07:10:03;22.70;99.90
25688;DHT22;17407;51.120;3.702;2022-08-04T07:12:30;22.80;99.90
25688;DHT22;17407;51.120;3.702;2022-08-04T07:14:56;22.80;99.90
25688;DHT22;17407;51.120;3.702;2022-08-04T07:17:22;22.80;99.90
25688;DHT22;17407;51.120;3.702;2022-08-04T07:19:48;22.90;99.90
25688;DHT22;17407;51.120;3.702;2022-08-04T07:22:14;22.90;99.90
25688;DHT22;17407;51.120;3.702;2022-08-04T07:24:41;23.00;99.90
25688;DHT22;17407;51.120;3.702;2022-08-04T07:27:07;23.10;99.90
25688;DHT22;17407;51.120;3.702;2022-08-04T07:29:36;23.10;99.90
25688;DHT22;17407;51.120;3.702;2022-08-04T07:32:03;23.30;99.90
25688;DHT22;17407;51.120;3.702;2022-08-04T07:34:31;23.40;99.90
25688;DHT22;17407;51.120;3.702;2022-08-04T07:36:58;23.50;99.90
25688;DHT22;17407;51.120;3.702;2022-08-04T07:39:27;23.60;99.90
25688;DHT22;17407;51.120;3.702;2022-08-04T07:41:53;23.60;99.90
25688;DHT22;17407;51.120;3.702;2022-08-04T07:44:20;23.80;99.90
25688;DHT22;17407;51.120;3.702;2022-08-04T07:46:46;23.80;99.90
25688;DHT22;17407;51.120;3.702;2022-08-04T07:49:12;23.80;99.90
25688;DHT22;17407;51.120;3.702;2022-08-04T07:51:38;23.90;99.90
25688;DHT22;17407;51.120;3.702;2022-08-04T07:54:07;23.90;99.90
25688;DHT22;17407;51.120;3.702;2022-08-04T07:56:36;23.90;99.90
25688;DHT22;17407;51.120;3.702;2022-08-04T07:59:03;24.00;99.90
25688;DHT22;17407;51.120;3.702;2022-08-04T08:01:29;24.10;99.90
25688;DHT22;17407;51.120;3.702;2022-08-04T08:03:56;24.10;99.90
25688;DHT22;17407;51.120;3.702;2022-08-04T08:06:23;24.20;99.90
25688;DHT22;17407;51.120;3.702;2022-08-04T08:08:49;24.10;99.90
25688;DHT22;17407;51.120;3.702;2022-08-04T08:11:16;24.10;99.90
25688;DHT22;17407;51.120;3.702;2022-08-04T08:13:42;24.10;99.90
25688;DHT22;17407;51.120;3.702;2022-08-04T08:16:10;24.10;99.90
25688;DHT22;17407;51.120;3.702;2022-08-04T08:18:36;24.10;99.90
25688;DHT22;17407;51.120;3.702;2022-08-04T08:21:03;24.00;99.90
25688;DHT22;17407;51.120;3.702;2022-08-04T08:23:30;23.90;99.90
25688;DHT22;17407;51.120;3.702;2022-08-04T08:25:57;24.00;99.90
25688;DHT22;17407;51.120;3.702;2022-08-04T08:28:23;24.00;99.90
25688;DHT22;17407;51.120;3.702;2022-08-04T08:30:49;23.90;99.90
25688;DHT22;17407;51.120;3.702;2022-08-04T08:33:16;24.00;99.90
25688;DHT22;17407;51.120;3.702;2022-08-04T08:57:54;24.10;99.90
25688;DHT22;17407;51.120;3.702;2022-08-04T09:00:41;24.10;99.90
25688;DHT22;17407;51.120;3.702;2022-08-04T09:11:56;24.20;99.90
25688;DHT22;17407;51.120;3.702;2022-08-04T09:14:38;24.20;99.90
25688;DHT22;17407;51.120;3.702;2022-08-04T09:17:12;24.20;99.90
25688;DHT22;17407;51.120;3.702;2022-08-04T09:19:47;24.30;99.90
25688;DHT22;17407;51.120;3.702;2022-08-04T09:25:12;24.40;99.90
25688;DHT22;17407;51.120;3.702;2022-08-04T09:27:50;24.50;99.90
25688;DHT22;17407;51.120;3.702;2022-08-04T09:42:06;25.30;99.90
25688;DHT22;17407;51.120;3.702;2022-08-04T09:44:51;25.40;99.90
25688;DHT22;17407;51.120;3.702;2022-08-04T09:47:58;25.50;99.90
25688;DHT22;17407;51.120;3.702;2022-08-04T09:50:37;25.70;99.90
25688;DHT22;17407;51.120;3.702;2022-08-04T09:59:26;26.50;99.90
25688;DHT22;17407;51.120;3.702;2022-08-04T10:02:04;26.80;99.90
25688;DHT22;17407;51.120;3.702;2022-08-04T10:04:34;27.00;99.90
25688;DHT22;17407;51.120;3.702;2022-08-04T10:10:11;27.30;99.90
25688;DHT22;17407;51.120;3.702;2022-08-04T10:15:32;27.60;99.90
25688;DHT22;17407;51.120;3.702;2022-08-04T10:18:27;27.80;99.90
25688;DHT22;17407;51.120;3.702;2022-08-04T10:28:57;28.40;99.90
25688;DHT22;17407;51.120;3.702;2022-08-04T10:31:32;28.50;99.90
25688;DHT22;17407;51.120;3.702;2022-08-04T10:34:20;28.70;99.90
25688;DHT22;17407;51.120;3.702;2022-08-04T10:37:09;28.80;99.90
25688;DHT22;17407;51.120;3.702;2022-08-04T10:39:51;28.80;99.90
25688;DHT22;17407;51.120;3.702;2022-08-04T10:42:41;28.90;99.90
25688;DHT22;17407;51.120;3.702;2022-08-04T10:45:18;29.10;99.90
25688;DHT22;17407;51.120;3.702;2022-08-04T10:48:26;29.10;99.90
25688;DHT22;17407;51.120;3.702;2022-08-04T10:51:18;29.40;99.90
25688;DHT22;17407;51.120;3.702;2022-08-04T10:53:50;29.50;99.90
25688;DHT22;17407;51.120;3.702;2022-08-04T10:56:37;29.60;99.90
25688;DHT22;17407;51.120;3.702;2022-08-04T10:59:11;29.70;99.90
25688;DHT22;17407;51.120;3.702;2022-08-04T11:01:44;29.80;99.90
25688;DHT22;17407;51.120;3.702;2022-08-04T11:04:36;29.90;99.70
25688;DHT22;17407;51.120;3.702;2022-08-04T11:07:06;30.00;98.90
25688;DHT22;17407;51.120;3.702;2022-08-04T11:09:33;30.10;98.60
25688;DHT22;17407;51.120;3.702;2022-08-04T11:12:09;30.20;97.00
25688;DHT22;17407;51.120;3.702;2022-08-04T11:14:51;30.20;96.50
25688;DHT22;17407;51.120;3.702;2022-08-04T11:17:27;30.20;97.20
25688;DHT22;17407;51.120;3.702;2022-08-04T11:20:16;30.30;97.40
25688;DHT22;17407;51.120;3.702;2022-08-04T11:23:05;30.50;97.00
25688;DHT22;17407;51.120;3.702;2022-08-04T11:31:27;30.70;95.00
25688;DHT22;17407;51.120;3.702;2022-08-04T11:34:04;30.70;95.10
25688;DHT22;17407;51.120;3.702;2022-08-04T11:37:16;30.80;95.10
25688;DHT22;17407;51.120;3.702;2022-08-04T11:39:59;30.90;94.80
25688;DHT22;17407;51.120;3.702;2022-08-04T11:42:30;30.90;94.10
25688;DHT22;17407;51.120;3.702;2022-08-04T11:45:12;31.00;94.10
25688;DHT22;17407;51.120;3.702;2022-08-04T11:50:49;31.00;92.70
25688;DHT22;17407;51.120;3.702;2022-08-04T11:53:20;31.00;93.70
25688;DHT22;17407;51.120;3.702;2022-08-04T11:55:49;31.10;93.60
25688;DHT22;17407;51.120;3.702;2022-08-04T11:58:21;31.20;93.50
25688;DHT22;17407;51.120;3.702;2022-08-04T12:06:46;31.50;92.50
25688;DHT22;17407;51.120;3.702;2022-08-04T12:09:31;31.60;91.90
25688;DHT22;17407;51.120;3.702;2022-08-04T12:20:29;31.90;90.50
25688;DHT22;17407;51.120;3.702;2022-08-04T12:22:59;31.70;90.60
25688;DHT22;17407;51.120;3.702;2022-08-04T12:25:29;31.70;91.00
25688;DHT22;17407;51.120;3.702;2022-08-04T12:28:11;31.80;90.70
25688;DHT22;17407;51.120;3.702;2022-08-04T12:30:45;31.70;90.20
25688;DHT22;17407;51.120;3.702;2022-08-04T12:33:21;31.80;91.40
25688;DHT22;17407;51.120;3.702;2022-08-04T12:38:20;32.10;90.20
25688;DHT22;17407;51.120;3.702;2022-08-04T12:40:50;32.20;88.50
25688;DHT22;17407;51.120;3.702;2022-08-04T12:43:41;32.30;87.80
25688;DHT22;17407;51.120;3.702;2022-08-04T12:46:25;32.30;87.10
25688;DHT22;17407;51.120;3.702;2022-08-04T12:48:52;32.20;84.70
25688;DHT22;17407;51.120;3.702;2022-08-04T12:51:26;32.20;85.90
25688;DHT22;17407;51.120;3.702;2022-08-04T12:53:52;32.40;84.00
25688;DHT22;17407;51.120;3.702;2022-08-04T12:56:24;32.50;85.70
25688;DHT22;17407;51.120;3.702;2022-08-04T12:58:52;32.50;85.00
25688;DHT22;17407;51.120;3.702;2022-08-04T13:01:20;32.60;83.70
25688;DHT22;17407;51.120;3.702;2022-08-04T13:03:52;32.80;88.70
25688;DHT22;17407;51.120;3.702;2022-08-04T13:06:24;32.90;88.40
25688;DHT22;17407;51.120;3.702;2022-08-04T13:08:52;32.90;88.70
25688;DHT22;17407;51.120;3.702;2022-08-04T13:11:20;32.80;88.50
25688;DHT22;17407;51.120;3.702;2022-08-04T13:13:52;32.80;89.00
25688;DHT22;17407;51.120;3.702;2022-08-04T13:16:18;32.80;88.70
25688;DHT22;17407;51.120;3.702;2022-08-04T13:18:53;32.80;89.70
25688;DHT22;17407;51.120;3.702;2022-08-04T13:21:21;32.80;90.00
25688;DHT22;17407;51.120;3.702;2022-08-04T13:23:53;32.80;88.00
25688;DHT22;17407;51.120;3.702;2022-08-04T13:26:21;32.70;88.20
25688;DHT22;17407;51.120;3.702;2022-08-04T13:28:48;32.60;88.10
25688;DHT22;17407;51.120;3.702;2022-08-04T13:31:22;32.60;87.70
25688;DHT22;17407;51.120;3.702;2022-08-04T13:33:53;32.50;88.40
25688;DHT22;17407;51.120;3.702;2022-08-04T13:36:24;32.50;89.20
25688;DHT22;17407;51.120;3.702;2022-08-04T13:39:02;32.60;89.10
25688;DHT22;17407;51.120;3.702;2022-08-04T13:41:28;32.60;89.30
25688;DHT22;17407;51.120;3.702;2022-08-04T13:43:57;32.60;89.30
25688;DHT22;17407;51.120;3.702;2022-08-04T13:46:28;32.70;89.00
25688;DHT22;17407;51.120;3.702;2022-08-04T13:48:57;32.70;89.50
25688;DHT22;17407;51.120;3.702;2022-08-04T13:51:24;32.80;88.10
25688;DHT22;17407;51.120;3.702;2022-08-04T13:53:58;32.80;88.40
25688;DHT22;17407;51.120;3.702;2022-08-04T13:56:31;32.90;87.90
25688;DHT22;17407;51.120;3.702;2022-08-04T13:59:00;33.00;87.00
25688;DHT22;17407;51.120;3.702;2022-08-04T14:01:27;32.80;86.00
25688;DHT22;17407;51.120;3.702;2022-08-04T14:06:33;32.60;85.80
25688;DHT22;17407;51.120;3.702;2022-08-04T14:09:15;32.50;86.80
25688;DHT22;17407;51.120;3.702;2022-08-04T14:11:49;32.60;86.60
25688;DHT22;17407;51.120;3.702;2022-08-04T14:14:21;32.60;86.60
25688;DHT22;17407;51.120;3.702;2022-08-04T14:19:31;32.60;85.90
25688;DHT22;17407;51.120;3.702;2022-08-04T14:25:09;32.40;85.30
25688;DHT22;17407;51.120;3.702;2022-08-04T14:30:20;32.20;85.80
25688;DHT22;17407;51.120;3.702;2022-08-04T14:32:56;32.10;85.50
25688;DHT22;17407;51.120;3.702;2022-08-04T14:35:23;32.10;86.30
25688;DHT22;17407;51.120;3.702;2022-08-04T14:37:53;32.10;87.00
25688;DHT22;17407;51.120;3.702;2022-08-04T14:40:27;32.00;87.10
25688;DHT22;17407;51.120;3.702;2022-08-04T14:42:53;31.90;87.10
25688;DHT22;17407;51.120;3.702;2022-08-04T14:45:27;31.90;86.80
25688;DHT22;17407;51.120;3.702;2022-08-04T14:47:54;31.70;86.90
25688;DHT22;17407;51.120;3.702;2022-08-04T14:50:20;31.50;86.60
25688;DHT22;17407;51.120;3.702;2022-08-04T14:53:05;31.40;86.50
25688;DHT22;17407;51.120;3.702;2022-08-04T14:55:31;31.30;87.80
25688;DHT22;17407;51.120;3.702;2022-08-04T14:57:57;31.20;87.60
25688;DHT22;17407;51.120;3.702;2022-08-04T15:00:29;31.10;88.20
25688;DHT22;17407;51.120;3.702;2022-08-04T15:03:04;31.10;88.70
25688;DHT22;17407;51.120;3.702;2022-08-04T15:05:31;31.10;88.40
25688;DHT22;17407;51.120;3.702;2022-08-04T15:07:58;31.20;89.40
25688;DHT22;17407;51.120;3.702;2022-08-04T15:10:24;31.20;88.90
25688;DHT22;17407;51.120;3.702;2022-08-04T15:12:50;31.30;87.80
25688;DHT22;17407;51.120;3.702;2022-08-04T15:15:16;31.40;87.50
25688;DHT22;17407;51.120;3.702;2022-08-04T15:17:42;31.40;86.30
25688;DHT22;17407;51.120;3.702;2022-08-04T15:20:09;31.40;86.60
25688;DHT22;17407;51.120;3.702;2022-08-04T15:22:36;31.40;86.60
25688;DHT22;17407;51.120;3.702;2022-08-04T15:25:02;31.30;85.90
25688;DHT22;17407;51.120;3.702;2022-08-04T15:27:33;31.30;84.60
25688;DHT22;17407;51.120;3.702;2022-08-04T15:30:02;31.40;84.70
25688;DHT22;17407;51.120;3.702;2022-08-04T15:32:32;31.30;84.90
25688;DHT22;17407;51.120;3.702;2022-08-04T15:35:07;31.30;85.00
25688;DHT22;17407;51.120;3.702;2022-08-04T15:45:51;31.10;86.10
25688;DHT22;17407;51.120;3.702;2022-08-04T15:51:05;31.20;85.50
25688;DHT22;17407;51.120;3.702;2022-08-04T15:58:53;31.10;85.90
25688;DHT22;17407;51.120;3.702;2022-08-04T16:01:20;31.00;86.50
25688;DHT22;17407;51.120;3.702;2022-08-04T16:03:50;31.00;86.20
25688;DHT22;17407;51.120;3.702;2022-08-04T16:19:07;30.70;86.50
25688;DHT22;17407;51.120;3.702;2022-08-04T16:24:36;30.40;86.00
25688;DHT22;17407;51.120;3.702;2022-08-04T16:27:06;30.40;85.00
25688;DHT22;17407;51.120;3.702;2022-08-04T16:29:42;30.30;85.00
25688;DHT22;17407;51.120;3.702;2022-08-04T16:32:13;30.40;84.50
25688;DHT22;17407;51.120;3.702;2022-08-04T16:34:40;30.30;84.00
25688;DHT22;17407;51.120;3.702;2022-08-04T16:37:08;30.20;84.10
25688;DHT22;17407;51.120;3.702;2022-08-04T16:39:35;30.00;84.70
25688;DHT22;17407;51.120;3.702;2022-08-04T16:50:19;29.90;85.60
25688;DHT22;17407;51.120;3.702;2022-08-04T16:52:48;29.70;86.80
25688;DHT22;17407;51.120;3.702;2022-08-04T16:55:15;29.70;87.10
25688;DHT22;17407;51.120;3.702;2022-08-04T16:57:46;29.70;86.90
25688;DHT22;17407;51.120;3.702;2022-08-04T17:00:12;29.70;87.50
25688;DHT22;17407;51.120;3.702;2022-08-04T17:02:38;29.50;87.00
25688;DHT22;17407;51.120;3.702;2022-08-04T17:05:04;29.40;86.90
25688;DHT22;17407;51.120;3.702;2022-08-04T17:07:51;29.30;86.80
25688;DHT22;17407;51.120;3.702;2022-08-04T17:10:17;29.20;86.10
25688;DHT22;17407;51.120;3.702;2022-08-04T17:12:43;29.20;85.80
25688;DHT22;17407;51.120;3.702;2022-08-04T17:15:29;29.10;86.60
25688;DHT22;17407;51.120;3.702;2022-08-04T17:18:18;29.10;86.60
25688;DHT22;17407;51.120;3.702;2022-08-04T17:20:45;28.90;87.00
25688;DHT22;17407;51.120;3.702;2022-08-04T17:23:31;28.90;87.20
25688;DHT22;17407;51.120;3.702;2022-08-04T17:26:05;28.80;87.10
25688;DHT22;17407;51.120;3.702;2022-08-04T17:28:31;28.60;87.20
25688;DHT22;17407;51.120;3.702;2022-08-04T17:30:59;28.40;87.60
25688;DHT22;17407;51.120;3.702;2022-08-04T17:33:25;28.30;88.30
25688;DHT22;17407;51.120;3.702;2022-08-04T17:35:52;28.30;88.40
25688;DHT22;17407;51.120;3.702;2022-08-04T17:38:20;28.20;88.30
25688;DHT22;17407;51.120;3.702;2022-08-04T17:41:06;28.10;87.90
25688;DHT22;17407;51.120;3.702;2022-08-04T17:46:26;27.80;87.90
25688;DHT22;17407;51.120;3.702;2022-08-04T17:51:51;27.60;89.10
25688;DHT22;17407;51.120;3.702;2022-08-04T17:54:18;27.40;89.50
25688;DHT22;17407;51.120;3.702;2022-08-04T17:56:49;27.30;90.10
25688;DHT22;17407;51.120;3.702;2022-08-04T18:07:14;27.10;91.00
25688;DHT22;17407;51.120;3.702;2022-08-04T18:12:26;26.90;91.50
25688;DHT22;17407;51.120;3.702;2022-08-04T18:14:54;26.90;91.70
25688;DHT22;17407;51.120;3.702;2022-08-04T18:17:41;26.70;91.80
25688;DHT22;17407;51.120;3.702;2022-08-04T18:20:16;26.70;91.60
25688;DHT22;17407;51.120;3.702;2022-08-04T18:22:44;26.60;91.80
25688;DHT22;17407;51.120;3.702;2022-08-04T18:25:13;26.60;92.00
25688;DHT22;17407;51.120;3.702;2022-08-04T18:27:54;26.60;91.80
25688;DHT22;17407;51.120;3.702;2022-08-04T18:30:23;26.50;91.60
25688;DHT22;17407;51.120;3.702;2022-08-04T18:32:49;26.50;91.60
25688;DHT22;17407;51.120;3.702;2022-08-04T18:35:15;26.40;91.80
25688;DHT22;17407;51.120;3.702;2022-08-04T18:37:41;26.40;92.30
25688;DHT22;17407;51.120;3.702;2022-08-04T18:40:08;26.30;92.00
25688;DHT22;17407;51.120;3.702;2022-08-04T18:42:35;26.30;92.20
25688;DHT22;17407;51.120;3.702;2022-08-04T18:45:01;26.30;92.50
25688;DHT22;17407;51.120;3.702;2022-08-04T18:47:27;26.20;92.70
25688;DHT22;17407;51.120;3.702;2022-08-04T18:49:54;26.20;92.90
25688;DHT22;17407;51.120;3.702;2022-08-04T18:52:20;26.20;93.10
25688;DHT22;17407;51.120;3.702;2022-08-04T18:54:46;26.10;93.20
25688;DHT22;17407;51.120;3.702;2022-08-04T18:57:20;26.10;93.40
25688;DHT22;17407;51.120;3.702;2022-08-04T18:59:47;26.00;93.60
25688;DHT22;17407;51.120;3.702;2022-08-04T19:02:13;26.00;93.70
25688;DHT22;17407;51.120;3.702;2022-08-04T19:04:40;25.90;93.80
25688;DHT22;17407;51.120;3.702;2022-08-04T19:07:06;25.90;94.00
25688;DHT22;17407;51.120;3.702;2022-08-04T19:09:32;25.80;94.10
25688;DHT22;17407;51.120;3.702;2022-08-04T19:11:58;25.80;94.20
25688;DHT22;17407;51.120;3.702;2022-08-04T19:14:24;25.70;94.40
25688;DHT22;17407;51.120;3.702;2022-08-04T19:16:49;25.70;94.50
25688;DHT22;17407;51.120;3.702;2022-08-04T19:19:15;25.60;94.70
25688;DHT22;17407;51.120;3.702;2022-08-04T19:21:43;25.60;94.70
25688;DHT22;17407;51.120;3.702;2022-08-04T19:24:09;25.60;94.90
25688;DHT22;17407;51.120;3.702;2022-08-04T19:26:35;25.50;94.90
25688;DHT22;17407;51.120;3.702;2022-08-04T19:29:01;25.50;95.00
25688;DHT22;17407;51.120;3.702;2022-08-04T19:31:27;25.40;95.20
25688;DHT22;17407;51.120;3.702;2022-08-04T19:33:53;25.40;95.20
